createdAt,value
2019-02-25T00:05:41.921Z,44.4
2019-02-25T00:22:17.984Z,44.4
2019-02-25T00:38:53.658Z,45.2
2019-02-25T00:55:29.917Z,46.0
2019-02-25T01:12:04.600Z,46.0
2019-02-25T01:28:39.885Z,46.8
2019-02-25T01:45:15.229Z,46.8
2019-02-25T02:01:50.499Z,47.6
2019-02-25T02:18:25.488Z,48.4
2019-02-25T02:35:00.581Z,48.4
2019-02-25T02:51:35.590Z,49.2
2019-02-25T03:08:10.365Z,49.6
2019-02-25T03:24:45.055Z,50.0
2019-02-25T03:41:19.580Z,50.8
2019-02-25T03:57:54.132Z,51.2
2019-02-25T04:14:28.957Z,52.0
2019-02-25T04:31:03.206Z,52.4
2019-02-25T04:47:36.931Z,53.2
2019-02-25T05:04:10.489Z,54.0
2019-02-25T05:20:44.146Z,54.0
2019-02-25T05:37:18.151Z,54.4
2019-02-25T05:53:51.593Z,54.4
2019-02-25T06:10:25.043Z,54.4
2019-02-25T06:26:58.858Z,54.8
2019-02-25T06:43:33.002Z,55.2
2019-02-25T07:00:07.010Z,54.8
2019-02-25T07:16:41.048Z,55.2
2019-02-25T07:33:15.660Z,54.8
2019-02-25T07:49:49.964Z,55.6
2019-02-25T07:58:07.232Z,55.2
2019-02-25T08:14:42.443Z,54.4
2019-02-25T08:27:58.675Z,54.0
2019-02-25T08:37:57.925Z,53.6
2019-02-25T08:54:33.222Z,52.8
2019-02-25T09:04:31.492Z,52.0
2019-02-25T09:17:49.467Z,50.4
2019-02-25T09:34:27.480Z,50.4
2019-02-25T09:47:46.365Z,49.6
2019-02-25T10:01:05.526Z,48.0
2019-02-25T10:17:45.069Z,47.2
2019-02-25T10:27:44.757Z,45.6
2019-02-25T10:37:44.862Z,44.0
2019-02-25T10:51:07.142Z,43.6
2019-02-25T10:57:45.858Z,40.8
2019-02-25T11:14:27.276Z,40.8
2019-02-25T11:27:48.649Z,40.4
2019-02-25T11:44:31.333Z,39.2
2019-02-25T11:57:53.168Z,37.6
2019-02-25T12:14:36.427Z,36.8
2019-02-25T12:31:19.662Z,36.8
2019-02-25T12:48:03.261Z,36.0
2019-02-25T13:04:46.954Z,35.2
2019-02-25T13:21:30.742Z,34.0
2019-02-25T13:38:14.594Z,34.0
2019-02-25T13:51:37.646Z,32.0
2019-02-25T14:08:21.373Z,32.0
2019-02-25T14:25:05.318Z,32.8
2019-02-25T14:41:48.916Z,32.0
2019-02-25T14:58:35.493Z,33.2
2019-02-25T15:15:16.316Z,33.2
2019-02-25T15:32:01.801Z,34.0
2019-02-25T15:48:43.586Z,34.0
2019-02-25T16:05:27.420Z,32.8
2019-02-25T16:22:11.380Z,33.6
2019-02-25T16:38:55.559Z,34.8
2019-02-25T16:48:55.051Z,35.6
2019-02-25T17:05:37.271Z,36.4
2019-02-25T17:22:17.050Z,37.2
2019-02-25T17:38:58.008Z,38.0
2019-02-25T17:55:38.808Z,40.0
2019-02-25T18:12:19.425Z,40.4
2019-02-25T18:28:59.974Z,41.2
2019-02-25T18:45:41.058Z,42.0
2019-02-25T19:02:20.111Z,42.8
2019-02-25T19:18:58.303Z,43.6
2019-02-25T19:35:38.993Z,44.4
2019-02-25T19:52:16.998Z,45.2
2019-02-25T20:08:56.416Z,46.0
2019-02-25T20:25:34.031Z,46.4
2019-02-25T20:42:14.998Z,47.6
2019-02-25T20:58:50.674Z,47.6
2019-02-25T21:15:28.806Z,48.4
2019-02-25T21:32:06.563Z,49.2
2019-02-25T21:48:43.804Z,49.6
2019-02-25T22:05:21.310Z,50.4
2019-02-25T22:21:57.950Z,50.0
2019-02-25T22:38:34.008Z,51.2
2019-02-25T22:55:12.383Z,52.4
2019-02-25T23:11:48.355Z,52.4
2019-02-25T23:28:25.399Z,52.8
2019-02-25T23:44:59.782Z,53.6
